ADDS METAR Data INFO
IDs: Format: Raw Decoded Include TAF

Data at: 1415 UTC 19 Nov 2017

METAR for:KMRT (Marysville/Union Cnt, OH, US)
Text:KMRT 191353Z AUTO 29012KT 10SM OVC018 03/01 A2988 RMK AO2 T00280006
Temperature: 2.8°C ( 37°F)
Dewpoint: 0.6°C ( 33°F) [RH = 85%]
Pressure (altimeter):29.88 inches Hg (1011.9 mb)
Winds:from the WNW (290 degrees) at 14 MPH (12 knots; 6.2 m/s)
Visibility:10 or more sm (16+ km)
Ceiling:1800 feet AGL
Clouds: overcast cloud deck at 1800 feet AGL
QC Flag:automated observation with no human augmentation